KBML

Berlin Regional Airport

Berlin, New Hampshire, USA
METAR KBML 191052Z AUTO VRB04KT 10SM CLR M09/M14 A2998 RMK AO2 SLP177 T10941144
Observed Flight Rules
Dec-19 @ 10:52 UTC (47 minutes ago) Visual Flight Rules
Wind Visibility Clouds
Variable at 4 knots 10 miles
  • Clear skies
Temperatures Readings
Current -9°C / 16°F
Dewpoint -14°C / 7°F
Humidity 67%
Altimeter 29.98" Hg
Pressure 1017.7 hPa
Elevation 345
METAR KBML 191052Z AUTO VRB04KT 10SM CLR M09/M14 A2998 RMK AO2 SLP177 T10941144
Observed Flight Rules
Dec-19 @ 10:52 UTC
(47 minutes ago)
VFR
Wind Visibility
Variable at 4 knots 10 miles
Clouds
  • Clear skies
Temperature Dewpoint
-9°C / 16°F -14°C / 7°F
Humidity Altimeter Pressure
67% 29.98" Hg 1017.7 hPa